Time;durP1;ratioP1;P1;durP2;ratioP2;P2;SDS_P1;SDS_P2;PMS_P1;PMS_P2;Temp;Humidity;BMP_temperature;BMP_pressure;BME280_temperature;BME280_humidity;BME280_pressure;Samples;Min_cycle;Max_cycle;Signal;HPM_P1;HPM_P2
2022/06/08 00:01:10;;;;;;;12.27;4.43;;;15.30;58.60;;;;;;5059360;28;20081;-77
2022/06/08 00:03:47;;;;;;;17.80;5.25;;;15.20;58.50;;;;;;5072581;28;20024;-76
2022/06/08 00:06:14;;;;;;;11.30;5.40;;;15.20;59.30;;;;;;5058909;28;20043;-76
2022/06/08 00:08:40;;;;;;;12.48;4.35;;;15.20;58.80;;;;;;5072767;28;20541;-76
2022/06/08 00:11:07;;;;;;;12.27;5.13;;;15.20;59.20;;;;;;5072309;28;20497;-77
2022/06/08 00:13:32;;;;;;;8.18;4.20;;;15.20;59.50;;;;;;5073713;28;20024;-78
2022/06/08 00:15:58;;;;;;;13.93;4.78;;;15.10;59.40;;;;;;5073641;28;20024;-76
2022/06/08 00:18:24;;;;;;;13.13;4.43;;;15.10;59.40;;;;;;5073001;28;20063;-77
2022/06/08 00:20:50;;;;;;;12.63;5.78;;;15.10;59.90;;;;;;5104618;28;20036;-76
2022/06/08 00:23:17;;;;;;;8.23;5.25;;;15.20;59.80;;;;;;5072216;28;20058;-77
2022/06/08 00:25:42;;;;;;;11.52;5.65;;;15.20;59.50;;;;;;5071826;28;20036;-76
2022/06/08 00:28:10;;;;;;;11.48;5.18;;;15.20;59.10;;;;;;5071467;28;20448;-76
2022/06/08 00:30:35;;;;;;;14.13;5.80;;;15.30;59.00;;;;;;5072280;28;20029;-77
2022/06/08 00:33:01;;;;;;;10.95;4.93;;;15.40;58.60;;;;;;5071812;28;20074;-76
2022/06/08 00:35:27;;;;;;;10.93;4.35;;;15.50;58.60;;;;;;5072214;28;20499;-76
2022/06/08 00:37:53;;;;;;;14.52;4.82;;;15.50;58.40;;;;;;5071948;28;20519;-77
2022/06/08 00:40:22;;;;;;;10.68;4.45;;;15.50;58.30;;;;;;5072090;28;20036;-76
2022/06/08 00:42:49;;;;;;;14.45;4.75;;;15.60;57.90;;;;;;5053930;28;20087;-77
2022/06/08 00:45:18;;;;;;;;;;;15.60;58.00;;;;;;5071816;28;20036;-75
2022/06/08 00:47:57;;;;;;;13.00;4.50;;;15.60;57.80;;;;;;5071743;28;19952;-76
2022/06/08 00:50:48;;;;;;;9.70;4.00;;;15.50;57.90;;;;;;5085748;28;20037;-77
2022/06/08 00:53:17;;;;;;;6.15;3.67;;;15.60;57.90;;;;;;5066587;28;20107;-76
2022/06/08 00:55:44;;;;;;;9.02;4.45;;;15.50;57.90;;;;;;5072057;28;20395;-76
2022/06/08 00:58:18;;;;;;;10.68;4.57;;;15.60;58.10;;;;;;5071821;28;20025;-76
2022/06/08 01:00:45;;;;;;;15.38;5.07;;;15.60;58.20;;;;;;5071723;28;20477;-76
2022/06/08 01:03:13;;;;;;;8.60;4.38;;;15.60;58.30;;;;;;5056632;28;20025;-76
2022/06/08 01:06:24;;;;;;;12.45;4.65;;;15.60;58.60;;;;;;5069266;28;20032;-76
2022/06/08 01:08:53;;;;;;;14.65;5.22;;;15.60;58.60;;;;;;5067525;28;20055;-76
2022/06/08 01:11:22;;;;;;;17.17;4.65;;;15.60;58.90;;;;;;5071387;28;20028;-76
2022/06/08 01:13:48;;;;;;;12.32;5.57;;;15.60;59.00;;;;;;5086854;28;20773;-78
2022/06/08 01:16:14;;;;;;;12.38;5.25;;;15.60;59.20;;;;;;5053815;28;20493;-77
2022/06/08 01:18:41;;;;;;;14.73;5.13;;;15.60;59.30;;;;;;5073972;28;20028;-77
2022/06/08 01:21:22;;;;;;;10.27;5.07;;;15.60;59.30;;;;;;5053421;28;20013;-77
2022/06/08 01:23:49;;;;;;;10.38;5.13;;;15.60;59.40;;;;;;5071542;28;20064;-78
2022/06/08 01:26:40;;;;;;;9.00;4.65;;;15.60;59.40;;;;;;5067636;28;20037;-77
2022/06/08 01:29:18;;;;;;;20.05;5.50;;;15.70;59.50;;;;;;5053980;28;20025;-77
2022/06/08 01:31:58;;;;;;;;;;;15.60;59.50;;;;;;5060493;28;20017;-77
2022/06/08 01:34:36;;;;;;;11.20;5.03;;;15.60;59.00;;;;;;5071277;28;19915;-77
2022/06/08 01:37:01;;;;;;;10.93;4.80;;;15.60;59.50;;;;;;5089019;28;20028;-77
2022/06/08 01:39:52;;;;;;;8.15;5.05;;;15.60;59.40;;;;;;5075421;28;20027;-77
2022/06/08 01:42:43;;;;;;;9.60;5.15;;;15.60;59.40;;;;;;5075468;28;20386;-76
2022/06/08 01:48:11;;;;;;;7.88;4.57;;;15.70;59.40;;;;;;5073608;28;20085;-76
2022/06/08 01:50:43;;;;;;;11.52;5.15;;;15.70;59.50;;;;;;5071990;28;20038;-76
2022/06/08 01:53:27;;;;;;;14.07;4.75;;;15.70;59.60;;;;;;5071938;28;20385;-74
2022/06/08 01:56:02;;;;;;;18.17;6.25;;;15.70;59.80;;;;;;5073656;28;20024;-77
2022/06/08 01:58:43;;;;;;;14.52;4.95;;;15.70;60.00;;;;;;5055530;28;20055;-77
2022/06/08 02:01:53;;;;;;;16.55;5.55;;;15.70;60.40;;;;;;5076287;28;20383;-76
2022/06/08 02:04:40;;;;;;;12.10;5.70;;;15.70;60.90;;;;;;5007038;28;20030;-74
2022/06/08 02:07:29;;;;;;;13.68;4.95;;;15.70;61.40;;;;;;4995375;28;20515;-75
2022/06/08 02:09:59;;;;;;;14.20;5.60;;;15.70;61.20;;;;;;4995383;28;20447;-78
2022/06/08 02:12:26;;;;;;;12.18;5.80;;;15.70;61.50;;;;;;4997729;28;20447;-77
2022/06/08 02:15:00;;;;;;;11.57;5.15;;;15.70;61.40;;;;;;4996150;28;20184;-76
2022/06/08 02:17:41;;;;;;;11.32;5.63;;;15.70;61.80;;;;;;4985658;28;21749;-77
2022/06/08 02:20:15;;;;;;;10.57;5.03;;;15.80;61.30;;;;;;5002548;28;20038;-77
2022/06/08 02:22:50;;;;;;;11.70;5.00;;;15.80;61.10;;;;;;4998973;28;20030;-77
2022/06/08 02:25:23;;;;;;;11.43;6.10;;;15.90;61.20;;;;;;4998808;28;20057;-76
2022/06/08 02:27:57;;;;;;;15.52;5.07;;;16.00;60.60;;;;;;5002328;28;20037;-78
2022/06/08 02:30:26;;;;;;;10.30;4.80;;;16.10;60.20;;;;;;5004513;28;20060;-77
2022/06/08 02:35:54;;;;;;;11.25;4.80;;;16.20;59.60;;;;;;4999309;28;20542;-77
2022/06/08 02:38:24;;;;;;;21.63;6.13;;;16.20;60.00;;;;;;5030516;28;20056;-75
2022/06/08 02:40:54;;;;;;;9.15;4.85;;;16.20;60.30;;;;;;5067762;28;20024;-76
2022/06/08 02:43:25;;;;;;;18.48;5.22;;;16.10;60.40;;;;;;5067640;28;20396;-76
2022/06/08 02:46:02;;;;;;;10.90;5.45;;;16.20;60.80;;;;;;5055985;28;20503;-76
2022/06/08 02:48:27;;;;;;;12.23;4.90;;;16.20;60.70;;;;;;5068093;28;20036;-76
2022/06/08 02:50:57;;;;;;;14.98;5.70;;;16.30;60.50;;;;;;5067085;28;20025;-77
2022/06/08 02:53:22;;;;;;;8.82;4.57;;;16.40;60.30;;;;;;5072665;28;20482;-76
2022/06/08 02:56:26;;;;;;;12.43;5.55;;;16.40;60.00;;;;;;5074324;28;20017;-77
2022/06/08 02:59:13;;;;;;;16.60;5.05;;;16.40;60.10;;;;;;5074153;28;20024;-77
2022/06/08 03:01:44;;;;;;;11.55;4.53;;;16.30;60.10;;;;;;5073868;28;20133;-76
2022/06/08 03:04:22;;;;;;;15.18;5.25;;;16.20;60.30;;;;;;5073506;28;20454;-76
2022/06/08 03:06:56;;;;;;;12.73;5.50;;;16.30;60.20;;;;;;5072453;28;20504;-77
2022/06/08 03:09:23;;;;;;;14.98;5.13;;;16.30;59.90;;;;;;5061693;28;20082;-77
2022/06/08 03:11:59;;;;;;;11.25;4.47;;;16.30;59.80;;;;;;5073713;28;20024;-77
2022/06/08 03:14:29;;;;;;;11.48;5.10;;;16.30;59.70;;;;;;5061112;28;20032;-77
2022/06/08 03:16:59;;;;;;;9.88;4.88;;;16.40;59.80;;;;;;5074262;28;20052;-76
2022/06/08 03:19:27;;;;;;;9.27;4.82;;;16.40;59.80;;;;;;5055712;28;20039;-76
2022/06/08 03:21:54;;;;;;;12.40;5.25;;;16.60;59.60;;;;;;5073533;28;20070;-79
2022/06/08 03:24:21;;;;;;;;;;;16.70;59.50;;;;;;5071407;28;20020;-76
2022/06/08 03:26:53;;;;;;;9.63;4.40;;;16.60;59.10;;;;;;5073242;28;19911;-77
2022/06/08 03:29:19;;;;;;;9.07;4.63;;;16.60;59.50;;;;;;5073283;28;20013;-77
2022/06/08 03:31:45;;;;;;;11.43;4.80;;;16.70;59.80;;;;;;5073384;28;20029;-76
2022/06/08 03:34:11;;;;;;;10.60;4.68;;;16.80;59.60;;;;;;5055237;28;20021;-76
2022/06/08 03:36:37;;;;;;;11.70;4.85;;;16.80;59.10;;;;;;5073300;28;20454;-76
2022/06/08 03:39:04;;;;;;;7.55;3.63;;;16.80;58.40;;;;;;5072983;28;20013;-76
2022/06/08 03:41:31;;;;;;;10.63;4.03;;;16.80;58.40;;;;;;5073191;28;20029;-75
2022/06/08 03:43:57;;;;;;;10.70;3.78;;;17.00;57.80;;;;;;5072996;28;20118;-76
2022/06/08 03:46:23;;;;;;;10.52;4.28;;;17.10;57.60;;;;;;5051161;28;20108;-77
2022/06/08 03:48:51;;;;;;;6.38;3.80;;;17.20;57.30;;;;;;5071473;28;20437;-77
2022/06/08 03:51:17;;;;;;;11.45;4.15;;;17.20;57.00;;;;;;5072943;28;20075;-77
2022/06/08 03:53:50;;;;;;;8.80;4.30;;;17.30;56.90;;;;;;5073032;28;20021;-77
2022/06/08 03:56:17;;;;;;;13.35;4.13;;;17.30;57.00;;;;;;5063705;28;20060;-77
2022/06/08 03:58:43;;;;;;;;;;;17.40;56.90;;;;;;5054356;28;20143;-76
2022/06/08 04:01:10;;;;;;;7.25;4.75;;;17.40;56.90;;;;;;5072531;28;19958;-77
2022/06/08 04:03:36;;;;;;;12.27;4.80;;;17.50;56.90;;;;;;5072726;28;20016;-78
2022/06/08 04:06:02;;;;;;;9.90;4.03;;;17.60;56.60;;;;;;5071674;28;20033;-79
2022/06/08 04:08:28;;;;;;;7.13;4.68;;;17.70;56.50;;;;;;5054572;28;20068;-77
2022/06/08 04:10:53;;;;;;;11.05;4.40;;;17.80;56.00;;;;;;5072461;28;20035;-77
2022/06/08 04:13:19;;;;;;;9.30;4.22;;;17.80;55.50;;;;;;5072428;28;20712;-77
2022/06/08 04:15:45;;;;;;;17.67;8.40;;;17.90;55.10;;;;;;5072526;28;20023;-76
2022/06/08 04:18:14;;;;;;;8.25;3.78;;;18.00;55.40;;;;;;5072543;28;20170;-76
2022/06/08 04:20:41;;;;;;;10.93;4.45;;;18.20;54.60;;;;;;5072313;28;20048;-78
2022/06/08 04:23:08;;;;;;;6.75;4.20;;;18.30;54.20;;;;;;5072553;28;20021;-76
2022/06/08 04:25:34;;;;;;;9.70;4.45;;;18.40;53.80;;;;;;5072182;28;20037;-78
2022/06/08 04:28:00;;;;;;;9.98;4.80;;;18.50;53.90;;;;;;5069234;28;20028;-77
2022/06/08 04:30:26;;;;;;;8.88;4.47;;;18.60;53.20;;;;;;5072247;28;20211;-77
2022/06/08 04:32:52;;;;;;;11.18;4.60;;;18.70;53.30;;;;;;5054717;28;20473;-78
2022/06/08 04:35:19;;;;;;;8.45;3.70;;;18.80;53.20;;;;;;5072394;28;20020;-77
2022/06/08 04:37:44;;;;;;;8.50;4.33;;;18.90;52.30;;;;;;5072104;28;20103;-77
2022/06/08 04:40:14;;;;;;;7.68;3.60;;;19.00;52.20;;;;;;5072146;28;20099;-77
2022/06/08 04:42:41;;;;;;;10.02;5.18;;;19.10;51.00;;;;;;5066470;28;20397;-76
2022/06/08 04:45:08;;;;;;;11.15;4.15;;;19.20;50.10;;;;;;5071877;28;20039;-78
2022/06/08 04:47:34;;;;;;;5.50;3.58;;;19.20;50.30;;;;;;5071835;28;20024;-77
2022/06/08 04:49:59;;;;;;;8.52;4.82;;;19.30;50.20;;;;;;5071590;28;20563;-77
2022/06/08 04:52:25;;;;;;;13.82;8.85;;;19.30;50.20;;;;;;5054022;28;20143;-76
2022/06/08 04:54:51;;;;;;;8.52;4.80;;;19.40;49.90;;;;;;5053767;28;20178;-76
2022/06/08 04:57:17;;;;;;;10.75;3.50;;;19.40;49.50;;;;;;5062569;28;20094;-76
2022/06/08 04:59:44;;;;;;;12.57;7.63;;;19.50;49.30;;;;;;5071606;28;20025;-76
2022/06/08 05:02:10;;;;;;;11.48;6.30;;;19.60;49.50;;;;;;5072019;28;20039;-77
2022/06/08 05:04:37;;;;;;;22.50;5.80;;;19.70;49.10;;;;;;5071701;28;20149;-78
2022/06/08 05:07:03;;;;;;;9.75;4.22;;;19.70;48.50;;;;;;5071438;28;20048;-77
2022/06/08 05:09:29;;;;;;;7.97;3.38;;;20.00;48.70;;;;;;5071896;28;20757;-78
2022/06/08 05:11:55;;;;;;;6.38;3.13;;;20.70;47.00;;;;;;5071644;28;20024;-76
2022/06/08 05:14:21;;;;;;;7.47;4.10;;;21.70;46.30;;;;;;5071650;28;20025;-78
2022/06/08 05:16:46;;;;;;;12.65;5.03;;;22.80;43.40;;;;;;5071497;28;20105;-77
2022/06/08 05:19:12;;;;;;;9.38;3.72;;;23.50;41.80;;;;;;5071409;28;20016;-77
2022/06/08 05:21:38;;;;;;;9.20;3.90;;;24.20;41.10;;;;;;5071526;28;20100;-78
2022/06/08 05:24:05;;;;;;;9.40;3.92;;;25.40;39.80;;;;;;5072304;28;20024;-78
2022/06/08 05:26:30;;;;;;;6.82;4.63;;;26.50;37.90;;;;;;5071793;28;20039;-78
2022/06/08 05:28:56;;;;;;;6.90;2.75;;;27.40;36.60;;;;;;5053107;28;20330;-78
2022/06/08 05:31:22;;;;;;;15.13;5.15;;;28.20;34.90;;;;;;5071961;28;20025;-79
2022/06/08 05:33:49;;;;;;;9.73;3.65;;;28.30;34.40;;;;;;5073304;28;20028;-77
2022/06/08 05:36:16;;;;;;;5.07;2.65;;;28.30;34.80;;;;;;5074905;28;20043;-77
2022/06/08 05:38:41;;;;;;;;;;;29.00;33.90;;;;;;5073005;28;20028;-78
2022/06/08 05:41:07;;;;;;;6.67;2.70;;;29.40;34.50;;;;;;5071519;28;20358;-77
2022/06/08 05:43:33;;;;;;;15.15;4.18;;;29.80;33.20;;;;;;5071615;28;20025;-77
2022/06/08 05:45:59;;;;;;;8.25;3.50;;;30.50;32.40;;;;;;5036561;28;20844;-78
2022/06/08 05:48:25;;;;;;;8.02;3.10;;;30.20;31.40;;;;;;5069440;28;20041;-79
2022/06/08 05:50:50;;;;;;;4.28;2.25;;;29.80;31.80;;;;;;5071138;28;20035;-78
2022/06/08 05:53:17;;;;;;;7.63;2.75;;;29.50;31.80;;;;;;5070550;28;20073;-77
2022/06/08 05:55:43;;;;;;;6.03;2.50;;;29.70;32.50;;;;;;5066265;28;20021;-77
2022/06/08 05:58:10;;;;;;;7.10;3.70;;;30.50;31.50;;;;;;5067186;28;20036;-76
2022/06/08 06:00:39;;;;;;;6.72;3.05;;;31.40;30.90;;;;;;5052861;28;20079;-77
2022/06/08 06:03:07;;;;;;;8.68;2.92;;;31.40;31.00;;;;;;5070725;28;20074;-79
2022/06/08 06:05:34;;;;;;;10.02;4.57;;;31.80;30.50;;;;;;5069091;28;20027;-78
2022/06/08 06:08:00;;;;;;;6.30;2.50;;;;;;;;;;5071025;28;20435;-76
2022/06/08 06:10:29;;;;;;;7.55;2.97;;;32.40;29.80;;;;;;5053098;28;20063;-77
2022/06/08 06:12:55;;;;;;;7.43;2.92;;;33.90;29.50;;;;;;5071192;28;20035;-77
2022/06/08 06:15:23;;;;;;;10.97;2.87;;;34.50;28.70;;;;;;5072233;28;20482;-75
2022/06/08 06:17:49;;;;;;;4.80;2.60;;;35.30;28.80;;;;;;5071129;28;20023;-77
2022/06/08 06:20:15;;;;;;;8.80;2.67;;;35.80;28.00;;;;;;5070706;28;20078;-78
2022/06/08 06:22:41;;;;;;;4.55;2.10;;;35.70;28.10;;;;;;5072666;28;20489;-78
2022/06/08 06:25:09;;;;;;;5.43;2.80;;;35.30;27.70;;;;;;5074476;28;20049;-81
2022/06/08 06:27:35;;;;;;;6.70;2.70;;;34.80;27.80;;;;;;5068967;28;20029;-78
2022/06/08 06:30:02;;;;;;;8.13;2.53;;;34.90;28.10;;;;;;5074703;28;20024;-79
2022/06/08 06:32:31;;;;;;;6.70;2.72;;;35.10;27.50;;;;;;5074730;28;20033;-80
2022/06/08 06:35:01;;;;;;;9.15;2.70;;;35.50;27.90;;;;;;5074253;28;20017;-78
2022/06/08 06:37:29;;;;;;;5.68;2.33;;;36.10;27.40;;;;;;5056440;28;20115;-80
2022/06/08 06:39:56;;;;;;;6.88;2.38;;;35.60;27.70;;;;;;5074349;28;20060;-79
2022/06/08 06:42:27;;;;;;;6.95;2.05;;;35.70;27.50;;;;;;5074074;28;20032;-79
2022/06/08 06:44:53;;;;;;;6.50;2.05;;;36.10;27.40;;;;;;5074173;28;20033;-78
2022/06/08 06:47:20;;;;;;;6.97;3.42;;;;;;;;;;5073884;28;20095;-77
2022/06/08 06:49:46;;;;;;;6.32;2.13;;;36.40;26.90;;;;;;5073548;28;20059;-77
2022/06/08 06:52:13;;;;;;;4.50;2.35;;;36.40;27.20;;;;;;5073848;28;20074;-77
2022/06/08 06:54:40;;;;;;;5.10;2.10;;;36.30;27.00;;;;;;5073960;28;20033;-77
2022/06/08 06:57:07;;;;;;;3.45;1.95;;;36.00;27.20;;;;;;5063638;28;20028;-78
2022/06/08 06:59:32;;;;;;;4.65;1.88;;;36.70;27.30;;;;;;5073421;28;20040;-78
2022/06/08 07:01:58;;;;;;;9.07;2.73;;;37.80;26.80;;;;;;5073909;28;20112;-79
2022/06/08 07:04:24;;;;;;;5.13;2.15;;;37.80;26.20;;;;;;5064289;28;20375;-77
2022/06/08 07:06:50;;;;;;;4.03;1.80;;;37.90;26.20;;;;;;5056822;28;20083;-80
2022/06/08 07:09:25;;;;;;;6.25;2.42;;;39.30;26.10;;;;;;5065243;28;20032;-81
2022/06/08 07:11:52;;;;;;;5.00;2.28;;;39.80;25.70;;;;;;5055186;28;20378;-80
2022/06/08 07:14:19;;;;;;;3.92;1.40;;;39.40;25.20;;;;;;5073006;28;20040;-79
2022/06/08 07:16:46;;;;;;;4.90;1.70;;;38.60;25.50;;;;;;5073936;28;20067;-79
2022/06/08 07:19:13;;;;;;;7.28;2.63;;;39.10;25.40;;;;;;5076267;28;20025;-81
2022/06/08 07:21:39;;;;;;;9.50;1.92;;;;;;;;;;5080055;28;20051;-80
2022/06/08 07:24:06;;;;;;;3.10;1.52;;;40.00;24.60;;;;;;5082288;28;20048;-80
2022/06/08 07:26:32;;;;;;;4.25;1.40;;;40.00;24.40;;;;;;5076537;28;20086;-81
2022/06/08 07:28:58;;;;;;;3.67;1.38;;;40.10;24.40;;;;;;5074547;28;20406;-81
2022/06/08 07:31:25;;;;;;;3.33;1.40;;;40.40;24.50;;;;;;5073621;28;20032;-81
2022/06/08 07:33:51;;;;;;;5.18;2.00;;;40.80;24.70;;;;;;5073142;28;20012;-81
2022/06/08 07:36:18;;;;;;;5.60;1.23;;;39.80;24.20;;;;;;5073331;28;20107;-80
2022/06/08 07:38:44;;;;;;;4.03;1.55;;;39.70;24.40;;;;;;5073808;28;20036;-82
2022/06/08 07:41:10;;;;;;;5.07;1.10;;;39.80;24.40;;;;;;5073607;28;20096;-80
2022/06/08 07:43:36;;;;;;;5.90;1.85;;;40.10;24.50;;;;;;5073663;28;20106;-82
2022/06/08 07:46:05;;;;;;;1.45;1.00;;;39.40;24.30;;;;;;5067203;28;20056;-81
2022/06/08 07:51:16;;;;;;;3.13;1.40;;;37.50;25.20;;;;;;5052410;28;20044;-81
2022/06/08 07:53:41;;;;;;;3.75;1.50;;;38.00;25.00;;;;;;5052955;28;20035;-82
2022/06/08 07:56:07;;;;;;;4.43;1.52;;;38.60;24.80;;;;;;5053360;28;20100;-81
2022/06/08 07:58:35;;;;;;;2.92;1.73;;;38.50;24.70;;;;;;5052791;28;20165;-80
2022/06/08 08:01:01;;;;;;;4.72;1.50;;;39.20;24.80;;;;;;5035656;28;20111;-80
2022/06/08 08:03:28;;;;;;;3.60;1.70;;;40.00;24.60;;;;;;5053083;28;20031;-81
2022/06/08 08:05:54;;;;;;;3.70;1.58;;;40.60;24.20;;;;;;5052813;28;20373;-82
2022/06/08 08:08:20;;;;;;;;;;;40.00;24.00;;;;;;5035705;28;20025;-81
2022/06/08 08:10:46;;;;;;;4.53;1.20;;;40.50;24.30;;;;;;5034407;28;19909;-80
2022/06/08 08:13:13;;;;;;;6.20;1.52;;;40.40;24.00;;;;;;5053457;28;20409;-81
2022/06/08 08:15:41;;;;;;;3.90;1.80;;;40.90;23.70;;;;;;5053131;28;20071;-80
2022/06/08 08:18:06;;;;;;;15.98;2.42;;;40.40;23.70;;;;;;5054861;28;20451;-81
2022/06/08 08:20:34;;;;;;;2.90;1.30;;;40.70;23.80;;;;;;5053164;28;20108;-81
2022/06/08 08:23:00;;;;;;;5.65;1.60;;;41.30;23.80;;;;;;5052729;28;20128;-81
2022/06/08 08:25:27;;;;;;;2.28;1.10;;;42.00;23.70;;;;;;5052349;28;20037;-79
2022/06/08 08:27:54;;;;;;;3.95;1.55;;;41.50;23.20;;;;;;5052630;28;20407;-81
2022/06/08 08:30:24;;;;;;;4.68;2.00;;;40.50;23.30;;;;;;5052675;28;20116;-82
2022/06/08 08:32:50;;;;;;;6.00;1.88;;;39.90;23.50;;;;;;5053065;28;20028;-81
2022/06/08 08:35:17;;;;;;;17.80;3.58;;;40.40;23.30;;;;;;5053106;28;20609;-80
2022/06/08 08:37:45;;;;;;;3.22;1.52;;;40.10;23.40;;;;;;5053350;28;20486;-81
2022/06/08 08:40:20;;;;;;;5.85;1.50;;;40.30;23.40;;;;;;5054975;28;20381;-82
2022/06/08 08:42:46;;;;;;;3.10;1.45;;;40.70;23.60;;;;;;5051853;28;20021;-82
2022/06/08 08:45:14;;;;;;;;;;;41.60;23.20;;;;;;5031470;28;20371;-81
2022/06/08 08:48:13;;;;;;;2.38;1.45;;;41.60;23.40;;;;;;5052449;28;20286;-81
2022/06/08 08:50:53;;;;;;;4.53;2.92;;;41.80;23.60;;;;;;5061213;28;20040;-82
2022/06/08 08:53:37;;;;;;;6.38;2.90;;;41.30;23.40;;;;;;5092551;28;20028;-81
2022/06/08 08:56:17;;;;;;;5.05;1.50;;;41.10;23.40;;;;;;5092633;28;20020;-81
2022/06/08 08:58:45;;;;;;;8.75;1.88;;;41.40;23.50;;;;;;5080448;28;20016;-82
2022/06/08 09:01:16;;;;;;;4.88;1.63;;;41.40;23.20;;;;;;5092487;28;20106;-81
2022/06/08 09:03:55;;;;;;;6.07;1.60;;;40.90;22.80;;;;;;5108167;28;20036;-81
2022/06/08 09:06:24;;;;;;;4.13;1.40;;;40.40;23.00;;;;;;5094407;28;20032;-80
2022/06/08 09:08:52;;;;;;;3.25;1.38;;;40.10;23.20;;;;;;5106520;28;20038;-80
2022/06/08 09:11:21;;;;;;;3.53;1.50;;;40.30;23.70;;;;;;5098284;28;20024;-82
2022/06/08 09:14:07;;;;;;;4.43;1.75;;;41.00;23.80;;;;;;5092530;28;20028;-82
2022/06/08 09:16:39;;;;;;;5.30;1.60;;;41.50;23.50;;;;;;5091385;28;20051;-81
2022/06/08 09:19:30;;;;;;;8.02;1.77;;;40.40;23.50;;;;;;5074000;28;20061;-81
2022/06/08 09:22:04;;;;;;;9.05;2.53;;;40.50;23.40;;;;;;5092147;28;20053;-81
2022/06/08 09:24:41;;;;;;;11.57;3.10;;;40.80;23.60;;;;;;5092080;28;20043;-81
2022/06/08 09:27:12;;;;;;;6.88;2.10;;;41.10;23.20;;;;;;5092227;28;20021;-80
2022/06/08 09:29:53;;;;;;;4.43;1.65;;;41.10;23.10;;;;;;5091803;28;20331;-83
2022/06/08 09:32:43;;;;;;;5.75;1.48;;;41.40;22.70;;;;;;5091377;28;20065;-80
2022/06/08 09:35:36;;;;;;;4.05;1.92;;;41.80;22.70;;;;;;5074437;28;20512;-80
2022/06/08 09:38:11;;;;;;;3.55;1.63;;;42.10;22.70;;;;;;5092135;28;20338;-82
2022/06/08 09:41:16;;;;;;;11.07;2.45;;;41.60;22.40;;;;;;5073835;28;20028;-80
2022/06/08 09:43:48;;;;;;;;;;;41.90;22.90;;;;;;5082533;28;20040;-81
2022/06/08 09:52:48;;;;;;;3.95;1.33;;;41.70;22.60;;;;;;5089621;28;20113;-83
2022/06/08 09:55:49;;;;;;;2.25;1.45;;;42.10;22.50;;;;;;5060248;28;20366;-81
2022/06/08 09:58:32;;;;;;;9.43;1.95;;;41.90;22.70;;;;;;5093895;28;20020;-81
2022/06/08 10:01:35;;;;;;;3.55;1.50;;;42.00;22.70;;;;;;5082769;28;20028;-80
2022/06/08 10:04:39;;;;;;;3.42;1.30;;;41.60;21.70;;;;;;5095969;28;20016;-81
2022/06/08 10:07:22;;;;;;;4.43;1.80;;;40.80;22.00;;;;;;5094629;28;20062;-82
2022/06/08 10:10:03;;;;;;;6.82;3.03;;;40.60;22.30;;;;;;5095751;28;20054;-81
2022/06/08 10:12:40;;;;;;;6.43;2.03;;;41.30;22.50;;;;;;5077428;28;20020;-81
2022/06/08 10:15:26;;;;;;;3.45;1.63;;;41.50;22.70;;;;;;5095737;28;20031;-79
2022/06/08 10:17:56;;;;;;;6.57;2.38;;;41.90;23.00;;;;;;5095217;28;20311;-81
2022/06/08 10:20:46;;;;;;;4.13;2.42;;;42.20;22.90;;;;;;5095365;28;20024;-82
2022/06/08 10:23:39;;;;;;;2.60;1.65;;;42.30;22.80;;;;;;5094882;28;20469;-85
2022/06/08 10:26:16;;;;;;;5.35;1.40;;;41.90;22.80;;;;;;5095450;28;20119;-82
2022/06/08 10:28:49;;;;;;;2.30;1.55;;;41.10;22.90;;;;;;5077017;28;20089;-82
2022/06/08 10:31:31;;;;;;;7.15;1.92;;;38.50;22.70;;;;;;5077009;28;20032;-79
2022/06/08 10:34:15;;;;;;;3.83;1.80;;;35.20;23.70;;;;;;5100596;28;20035;-81
2022/06/08 10:36:44;;;;;;;4.28;2.15;;;32.70;25.40;;;;;;5082578;28;20024;-82
2022/06/08 10:39:12;;;;;;;7.65;2.80;;;31.20;26.90;;;;;;5078512;28;20032;-81
2022/06/08 10:44:51;;;;;;;5.13;2.25;;;29.00;28.40;;;;;;5095792;28;20054;-81
2022/06/08 10:47:28;;;;;;;3.97;1.95;;;28.10;28.80;;;;;;5088312;28;20115;-82
2022/06/08 10:49:54;;;;;;;;;;;27.10;29.70;;;;;;5077617;28;20044;-82
2022/06/08 10:52:20;;;;;;;;;;;26.60;29.60;;;;;;5097354;28;19908;-80
2022/06/08 10:55:10;;;;;;;6.47;2.80;;;26.20;29.80;;;;;;5103728;28;19953;-81
2022/06/08 10:57:36;;;;;;;4.68;2.38;;;25.90;31.30;;;;;;5090972;28;20363;-80
2022/06/08 11:00:21;;;;;;;4.40;2.47;;;25.50;31.70;;;;;;5097149;28;20035;-84
2022/06/08 11:02:46;;;;;;;6.72;2.60;;;25.30;32.00;;;;;;5086411;28;20024;-82
2022/06/08 11:05:42;;;;;;;5.45;2.38;;;25.10;32.50;;;;;;5095740;28;20078;-81
2022/06/08 11:08:08;;;;;;;4.03;2.25;;;25.00;31.90;;;;;;5085479;28;20058;-82
2022/06/08 11:10:50;;;;;;;9.45;2.88;;;24.90;32.10;;;;;;5095478;28;20048;-81
2022/06/08 11:13:25;;;;;;;5.78;1.90;;;24.60;32.70;;;;;;5096398;28;20020;-81
2022/06/08 11:15:56;;;;;;;8.10;3.05;;;24.60;32.60;;;;;;5094350;28;20088;-82
2022/06/08 11:18:31;;;;;;;5.45;2.20;;;24.40;32.80;;;;;;5076322;28;20019;-81
2022/06/08 11:21:15;;;;;;;5.50;2.35;;;24.40;32.90;;;;;;5094370;28;20047;-82
2022/06/08 11:23:50;;;;;;;6.00;2.55;;;24.40;32.90;;;;;;5094764;28;20501;-83
2022/06/08 11:26:23;;;;;;;3.70;2.45;;;24.30;33.30;;;;;;5079336;28;20174;-81
2022/06/08 11:28:53;;;;;;;6.50;2.50;;;24.30;33.90;;;;;;5097575;28;20042;-81
2022/06/08 11:31:25;;;;;;;4.28;2.40;;;24.30;33.80;;;;;;5092166;28;20080;-82
2022/06/08 11:34:25;;;;;;;7.50;2.28;;;24.20;33.60;;;;;;5086286;28;20028;-80
2022/06/08 11:36:58;;;;;;;5.50;2.35;;;24.10;33.70;;;;;;5094262;28;20012;-82
2022/06/08 11:39:44;;;;;;;3.97;2.22;;;24.00;33.70;;;;;;5094004;28;20082;-81
2022/06/08 11:42:55;;;;;;;5.85;2.40;;;24.00;33.50;;;;;;5084793;28;20144;-81
2022/06/08 11:45:34;;;;;;;6.80;2.20;;;24.00;34.30;;;;;;5082400;28;20032;-81
2022/06/08 11:48:13;;;;;;;6.40;2.22;;;24.00;34.00;;;;;;5075647;28;20108;-83
2022/06/08 11:50:47;;;;;;;6.22;2.42;;;24.00;33.90;;;;;;5094605;28;20112;-83
2022/06/08 11:53:28;;;;;;;5.70;3.17;;;24.00;33.80;;;;;;5094425;28;20542;-81
2022/06/08 11:56:16;;;;;;;5.13;2.42;;;24.00;33.80;;;;;;5094556;28;20500;-83
2022/06/08 11:58:47;;;;;;;12.77;2.35;;;24.10;33.00;;;;;;5094016;28;20048;-82
2022/06/08 12:01:22;;;;;;;8.85;2.35;;;24.10;32.30;;;;;;5094004;28;20385;-81
2022/06/08 12:03:58;;;;;;;5.75;2.35;;;24.00;32.00;;;;;;5093620;28;20066;-83
2022/06/08 12:06:31;;;;;;;5.32;2.42;;;23.90;31.40;;;;;;5094851;28;20034;-84
2022/06/08 12:09:05;;;;;;;9.50;1.95;;;23.90;31.70;;;;;;5075963;28;20020;-81
2022/06/08 12:11:33;;;;;;;3.95;1.70;;;23.90;31.60;;;;;;5076145;28;20107;-82
2022/06/08 12:14:23;;;;;;;4.65;1.77;;;24.00;31.60;;;;;;5096034;28;20473;-83
2022/06/08 12:16:55;;;;;;;10.05;1.95;;;24.00;31.90;;;;;;5094324;28;20055;-84
2022/06/08 12:19:22;;;;;;;3.63;1.90;;;24.00;32.50;;;;;;5093394;28;20075;-82
2022/06/08 12:21:49;;;;;;;;;;;23.90;32.40;;;;;;5092550;28;20384;-81
2022/06/08 12:24:15;;;;;;;6.90;2.10;;;23.90;32.20;;;;;;5093496;28;19908;-82
2022/06/08 12:27:21;;;;;;;5.90;1.73;;;23.90;33.20;;;;;;5093028;28;20035;-82
2022/06/08 12:29:55;;;;;;;5.22;3.03;;;23.90;33.70;;;;;;5090094;28;20028;-81
2022/06/08 12:32:24;;;;;;;5.68;2.08;;;23.90;33.70;;;;;;5093284;28;20035;-81
2022/06/08 12:34:53;;;;;;;4.35;1.90;;;24.00;33.40;;;;;;5093550;28;20024;-84
2022/06/08 12:37:30;;;;;;;8.45;2.70;;;23.90;33.40;;;;;;5078142;28;20028;-81
2022/06/08 12:40:18;;;;;;;4.13;2.40;;;23.90;33.30;;;;;;5086212;28;20066;-80
2022/06/08 12:42:49;;;;;;;4.97;2.05;;;23.90;33.60;;;;;;5100122;28;20047;-81
2022/06/08 12:45:34;;;;;;;10.00;3.10;;;23.90;33.40;;;;;;5080345;28;20035;-80
2022/06/08 12:48:20;;;;;;;6.35;2.33;;;23.90;33.50;;;;;;5093712;28;20020;-81
2022/06/08 12:50:46;;;;;;;2.45;1.45;;;23.90;33.60;;;;;;5064067;28;20457;-81
2022/06/08 12:53:12;;;;;;;4.20;1.85;;;23.80;33.70;;;;;;5095655;28;20481;-85
2022/06/08 12:55:40;;;;;;;4.60;2.65;;;23.70;33.80;;;;;;5097971;28;20047;-81
2022/06/08 12:58:09;;;;;;;5.93;2.25;;;23.80;34.50;;;;;;5093297;28;20530;-82
2022/06/08 13:00:37;;;;;;;8.88;2.67;;;23.80;33.80;;;;;;5092964;28;20119;-81
2022/06/08 13:03:15;;;;;;;4.40;1.95;;;23.90;33.20;;;;;;5094598;28;20028;-82
2022/06/08 13:05:41;;;;;;;3.67;1.67;;;23.90;32.40;;;;;;5075596;28;20461;-81
2022/06/08 13:08:12;;;;;;;4.30;2.35;;;23.90;32.60;;;;;;5093638;28;20024;-81
2022/06/08 13:10:38;;;;;;;4.63;1.98;;;24.00;32.60;;;;;;5092680;28;20036;-81
2022/06/08 13:13:06;;;;;;;7.80;2.60;;;23.90;32.50;;;;;;5092586;28;20300;-83
2022/06/08 13:15:39;;;;;;;2.50;1.70;;;24.00;32.90;;;;;;5092492;28;20026;-82
2022/06/08 13:18:06;;;;;;;5.80;2.60;;;24.00;31.70;;;;;;5092671;28;20016;-80
2022/06/08 13:20:33;;;;;;;;;;;23.90;32.10;;;;;;5093166;28;20024;-81
2022/06/08 13:22:59;;;;;;;6.18;2.42;;;23.90;32.10;;;;;;5074850;28;19904;-81
2022/06/08 13:25:26;;;;;;;6.22;2.58;;;24.00;32.60;;;;;;5077556;28;20062;-81
2022/06/08 13:27:54;;;;;;;3.63;1.57;;;23.90;33.00;;;;;;5093644;28;20537;-81
2022/06/08 13:30:26;;;;;;;5.35;2.20;;;24.00;32.60;;;;;;5091373;28;20777;-82